createdAt,value
2023-02-16T00:00:20.300Z,-0.90
2023-02-16T00:02:50.922Z,-1.10
2023-02-16T00:05:27.065Z,-1.10
2023-02-16T00:07:57.503Z,-1.10
2023-02-16T00:13:50.671Z,-1.00
2023-02-16T00:16:27.391Z,-1.10
2023-02-16T00:18:56.590Z,-1.10
2023-02-16T00:21:24.184Z,-1.10
2023-02-16T00:23:52.300Z,-1.10
2023-02-16T00:26:25.411Z,-1.10
2023-02-16T00:28:56.067Z,-1.10
2023-02-16T00:31:31.811Z,-1.00
2023-02-16T00:34:00.216Z,-1.10
2023-02-16T00:36:27.248Z,-1.20
2023-02-16T00:38:54.268Z,-1.20
2023-02-16T00:41:42.900Z,-1.10
2023-02-16T00:44:29.318Z,-1.10
2023-02-16T00:46:57.315Z,-1.30
2023-02-16T00:49:24.830Z,-1.30
2023-02-16T00:51:53.589Z,-1.40
2023-02-16T00:54:21.758Z,-1.40
2023-02-16T00:56:51.431Z,-1.10
2023-02-16T00:59:22.531Z,-1.40
2023-02-16T01:01:51.365Z,-1.40
2023-02-16T01:04:24.073Z,-1.40
2023-02-16T01:07:09.678Z,-1.30
2023-02-16T01:10:02.148Z,-1.30
2023-02-16T01:15:34.716Z,-1.30
2023-02-16T01:18:09.260Z,-1.20
2023-02-16T01:20:37.244Z,-1.10
2023-02-16T01:23:05.106Z,-1.00
2023-02-16T01:25:33.483Z,-1.00
2023-02-16T01:28:00.689Z,-1.10
2023-02-16T01:30:28.421Z,-1.10
2023-02-16T01:32:58.631Z,-1.10
2023-02-16T01:35:32.450Z,-1.20
2023-02-16T01:37:59.743Z,-1.10
2023-02-16T01:40:42.845Z,-1.10
2023-02-16T01:43:09.792Z,-1.10
2023-02-16T01:45:42.170Z,-0.70
2023-02-16T01:48:26.281Z,-0.90
2023-02-16T01:51:02.530Z,-0.70
2023-02-16T01:53:42.995Z,-0.70
2023-02-16T01:56:35.808Z,-0.70
2023-02-16T01:59:29.547Z,-0.50
2023-02-16T02:02:05.984Z,-0.50
2023-02-16T02:05:03.416Z,-0.50
2023-02-16T02:07:56.926Z,-0.20
2023-02-16T02:11:03.147Z,-0.20
2023-02-16T02:13:42.887Z,-0.20
2023-02-16T02:25:51.722Z,0.20
2023-02-16T02:28:43.616Z,0.20
2023-02-16T02:31:45.401Z,0.30
2023-02-16T02:34:43.244Z,0.10
2023-02-16T02:37:29.189Z,-0.20
2023-02-16T02:39:59.771Z,0.00
2023-02-16T02:42:51.981Z,0.00
2023-02-16T02:45:25.332Z,0.10
2023-02-16T02:47:53.318Z,0.20
2023-02-16T02:51:07.455Z,0.20
2023-02-16T02:54:16.847Z,0.20
2023-02-16T02:57:21.293Z,0.20
2023-02-16T03:00:28.603Z,0.20
2023-02-16T03:03:01.335Z,0.10
2023-02-16T03:05:33.985Z,0.10
2023-02-16T03:08:14.479Z,0.00
2023-02-16T03:11:12.396Z,0.00
2023-02-16T03:13:44.787Z,-0.10
2023-02-16T03:16:22.378Z,-0.20
2023-02-16T03:19:08.970Z,-0.20
2023-02-16T03:21:55.383Z,-0.20
2023-02-16T03:24:45.778Z,-0.30
2023-02-16T03:27:34.866Z,-0.30
2023-02-16T03:30:11.249Z,-0.30
2023-02-16T03:32:39.472Z,-0.30
2023-02-16T03:35:08.968Z,-0.30
2023-02-16T03:37:36.319Z,-0.20
2023-02-16T03:40:24.702Z,-0.20
2023-02-16T03:42:52.537Z,-0.10
2023-02-16T03:45:20.444Z,-0.10
2023-02-16T03:47:47.428Z,-0.10
2023-02-16T03:50:14.849Z,0.00
2023-02-16T03:52:41.797Z,-0.10
2023-02-16T03:55:09.129Z,-0.10
2023-02-16T03:57:36.076Z,-0.10
2023-02-16T04:00:04.025Z,-0.10
2023-02-16T04:02:39.919Z,-0.10
2023-02-16T04:05:07.277Z,-0.10
2023-02-16T04:07:34.118Z,0.00
2023-02-16T04:10:00.964Z,0.30
2023-02-16T04:12:36.692Z,0.40
2023-02-16T04:15:14.626Z,0.10
2023-02-16T04:17:41.409Z,0.20
2023-02-16T04:20:10.836Z,0.20
2023-02-16T04:22:38.142Z,0.30
2023-02-16T04:25:05.884Z,0.40
2023-02-16T04:27:33.128Z,0.20
2023-02-16T04:30:00.077Z,0.20
2023-02-16T04:32:27.286Z,0.30
2023-02-16T04:34:54.200Z,0.20
2023-02-16T04:37:21.286Z,0.20
2023-02-16T04:39:50.614Z,0.00
2023-02-16T04:42:17.508Z,0.00
2023-02-16T04:44:44.504Z,0.00
2023-02-16T04:47:11.578Z,0.00
2023-02-16T04:49:38.490Z,0.00
2023-02-16T04:52:05.917Z,-0.20
2023-02-16T04:54:33.594Z,-0.20
2023-02-16T04:57:01.110Z,-0.30
2023-02-16T04:59:30.532Z,-0.30
2023-02-16T05:01:57.750Z,-0.20
2023-02-16T05:04:27.495Z,-0.30
2023-02-16T05:06:54.634Z,-0.20
2023-02-16T05:09:21.535Z,-0.10
2023-02-16T05:12:07.049Z,0.00
2023-02-16T05:14:42.286Z,0.00
2023-02-16T05:17:26.562Z,0.00
2023-02-16T05:19:56.593Z,0.10
2023-02-16T05:22:26.300Z,0.10
2023-02-16T05:24:53.301Z,0.20
2023-02-16T05:27:26.710Z,0.20
2023-02-16T05:29:53.903Z,0.20
2023-02-16T05:32:21.586Z,0.30
2023-02-16T05:34:48.569Z,0.30
2023-02-16T05:37:17.779Z,0.20
2023-02-16T05:39:45.120Z,0.30
2023-02-16T05:42:12.093Z,0.40
2023-02-16T05:44:39.237Z,0.30
2023-02-16T05:47:07.184Z,0.30
2023-02-16T05:49:34.729Z,0.30
2023-02-16T05:52:03.560Z,0.40
2023-02-16T05:54:31.445Z,0.30
2023-02-16T05:56:58.315Z,0.40
2023-02-16T05:59:25.498Z,0.50
2023-02-16T06:01:52.832Z,0.40
2023-02-16T06:04:21.341Z,0.40
2023-02-16T06:06:50.026Z,0.40
2023-02-16T06:09:17.341Z,0.30
2023-02-16T06:11:44.456Z,0.40
2023-02-16T06:14:17.122Z,0.30
2023-02-16T06:16:47.271Z,0.30
2023-02-16T06:19:16.446Z,0.20
2023-02-16T06:21:43.525Z,0.20
2023-02-16T06:24:13.053Z,0.30
2023-02-16T06:26:40.405Z,0.40
2023-02-16T06:29:07.960Z,0.30
2023-02-16T06:31:36.535Z,0.30
2023-02-16T06:34:04.501Z,0.30
2023-02-16T06:36:32.417Z,0.30
2023-02-16T06:38:59.461Z,0.30
2023-02-16T06:41:32.339Z,0.30
2023-02-16T06:44:07.173Z,0.30
2023-02-16T06:46:34.281Z,0.30
2023-02-16T06:49:01.754Z,0.40
2023-02-16T06:51:28.909Z,0.50
2023-02-16T06:53:55.941Z,0.50
2023-02-16T06:56:23.076Z,0.50
2023-02-16T06:58:50.147Z,0.60
2023-02-16T07:01:23.484Z,0.60
2023-02-16T07:03:51.721Z,0.60
2023-02-16T07:06:19.333Z,0.70
2023-02-16T07:08:46.704Z,0.70
2023-02-16T07:11:14.861Z,0.70
2023-02-16T07:13:41.938Z,0.80
2023-02-16T07:16:09.524Z,0.80
2023-02-16T07:18:37.226Z,0.80
2023-02-16T07:21:04.910Z,0.90
2023-02-16T07:23:32.446Z,0.90
2023-02-16T07:25:59.476Z,1.00
2023-02-16T07:28:27.603Z,1.10
2023-02-16T07:30:54.382Z,1.20
2023-02-16T07:33:21.351Z,1.20
2023-02-16T07:35:48.303Z,1.30
2023-02-16T07:38:15.325Z,1.40
2023-02-16T07:40:42.245Z,1.50
2023-02-16T07:43:09.276Z,1.60
2023-02-16T07:45:36.411Z,1.70
2023-02-16T07:48:03.578Z,1.70
2023-02-16T07:50:30.555Z,1.70
2023-02-16T07:52:57.466Z,1.80
2023-02-16T07:55:24.494Z,1.90
2023-02-16T07:57:55.363Z,2.00
2023-02-16T08:00:22.607Z,2.00
2023-02-16T08:02:49.903Z,2.00
2023-02-16T08:05:17.504Z,2.10
2023-02-16T08:07:46.615Z,2.10
2023-02-16T08:10:14.807Z,2.20
2023-02-16T08:12:42.241Z,2.20
2023-02-16T08:15:10.021Z,2.30
2023-02-16T08:17:36.942Z,2.30
2023-02-16T08:20:06.603Z,2.30
2023-02-16T08:22:34.297Z,2.30
2023-02-16T08:25:01.283Z,2.30
2023-02-16T08:27:28.238Z,2.30
2023-02-16T08:29:55.401Z,2.40
2023-02-16T08:32:22.544Z,2.40
2023-02-16T08:34:49.556Z,2.60
2023-02-16T08:37:16.493Z,2.60
2023-02-16T08:39:43.700Z,2.70
2023-02-16T08:42:13.464Z,2.80
2023-02-16T08:44:42.282Z,3.00
2023-02-16T08:47:10.866Z,3.10
2023-02-16T08:49:39.218Z,3.30
2023-02-16T08:52:06.451Z,3.40
2023-02-16T08:54:33.682Z,3.50
2023-02-16T08:57:02.817Z,3.60
2023-02-16T08:59:35.525Z,3.70
2023-02-16T09:02:02.563Z,3.80
2023-02-16T09:04:29.964Z,3.80
2023-02-16T09:06:58.339Z,3.90
2023-02-16T09:09:26.439Z,4.00
2023-02-16T09:11:53.687Z,4.10
2023-02-16T09:14:21.554Z,4.20
2023-02-16T09:16:48.984Z,4.30
2023-02-16T09:19:19.225Z,4.40
2023-02-16T09:21:47.730Z,4.50
2023-02-16T09:24:17.565Z,4.60
2023-02-16T09:26:44.794Z,4.80
2023-02-16T09:29:12.961Z,5.00
2023-02-16T09:31:41.106Z,5.10
2023-02-16T09:34:23.533Z,5.20
2023-02-16T09:36:51.103Z,5.30
2023-02-16T09:39:19.145Z,5.50
2023-02-16T09:42:05.055Z,5.50
2023-02-16T09:44:58.902Z,5.60
2023-02-16T09:47:33.820Z,5.80
2023-02-16T09:50:50.451Z,5.90
2023-02-16T09:53:37.129Z,6.10
2023-02-16T09:56:40.197Z,6.30
2023-02-16T09:59:14.684Z,6.40
2023-02-16T10:01:52.373Z,6.40
2023-02-16T10:04:19.991Z,6.60
2023-02-16T10:07:06.193Z,6.70
2023-02-16T10:09:33.386Z,6.70
2023-02-16T10:12:11.094Z,6.70
2023-02-16T10:14:58.278Z,6.80
2023-02-16T10:17:34.452Z,6.80
2023-02-16T10:20:30.198Z,6.90
2023-02-16T10:23:35.946Z,6.90
2023-02-16T10:26:30.584Z,7.00
2023-02-16T10:29:02.489Z,7.10
2023-02-16T10:32:03.103Z,7.20
2023-02-16T10:34:37.714Z,7.30
2023-02-16T10:37:33.934Z,7.50
2023-02-16T10:40:22.867Z,7.60
2023-02-16T10:42:56.326Z,7.70
2023-02-16T10:45:31.996Z,7.90
2023-02-16T10:47:59.207Z,8.00
2023-02-16T10:50:39.865Z,8.20
2023-02-16T10:53:16.484Z,8.40
2023-02-16T10:55:43.595Z,8.60
2023-02-16T10:58:24.239Z,8.80
2023-02-16T11:01:21.831Z,9.00
2023-02-16T11:03:55.180Z,9.20
2023-02-16T11:06:26.848Z,9.30
2023-02-16T11:09:00.992Z,9.50
2023-02-16T11:11:37.777Z,9.50
2023-02-16T11:14:09.133Z,9.60
2023-02-16T11:16:36.692Z,9.70
2023-02-16T11:19:25.068Z,9.70
2023-02-16T11:21:56.990Z,9.80
2023-02-16T11:24:36.922Z,9.80
2023-02-16T11:27:06.218Z,9.90
2023-02-16T11:29:34.250Z,9.90
2023-02-16T11:32:10.642Z,9.90
2023-02-16T11:34:47.245Z,10.00
2023-02-16T11:37:27.679Z,10.10
2023-02-16T11:40:22.992Z,10.40
2023-02-16T11:42:55.330Z,10.40
2023-02-16T11:45:32.503Z,10.30
2023-02-16T11:48:08.448Z,10.40
2023-02-16T11:50:38.653Z,10.50
2023-02-16T11:53:12.283Z,10.50
2023-02-16T11:55:45.987Z,10.60
2023-02-16T11:58:27.747Z,10.60
2023-02-16T12:01:19.135Z,10.60
2023-02-16T12:04:27.010Z,10.70
2023-02-16T12:07:15.638Z,10.80
2023-02-16T12:10:38.152Z,10.90
2023-02-16T12:13:29.582Z,11.00
2023-02-16T12:16:25.957Z,11.10
2023-02-16T12:19:28.220Z,11.10
2023-02-16T12:22:18.060Z,11.20
2023-02-16T12:24:57.603Z,11.30
2023-02-16T12:27:40.600Z,11.30
2023-02-16T12:30:34.032Z,11.50
2023-02-16T12:33:34.817Z,11.70
2023-02-16T12:36:23.932Z,11.90
2023-02-16T12:39:02.778Z,12.10
2023-02-16T12:41:49.771Z,12.30
2023-02-16T12:44:32.461Z,12.60
2023-02-16T12:47:08.331Z,12.60
2023-02-16T12:49:52.195Z,12.70
2023-02-16T12:52:31.188Z,12.70
2023-02-16T12:55:06.586Z,12.90
2023-02-16T12:57:34.924Z,13.10
2023-02-16T13:00:04.943Z,13.20
2023-02-16T13:02:37.255Z,13.40
2023-02-16T13:05:09.034Z,14.20
2023-02-16T13:07:39.962Z,14.80
2023-02-16T13:10:36.272Z,15.40
2023-02-16T13:13:10.474Z,15.70
2023-02-16T13:15:51.289Z,15.70
2023-02-16T13:18:26.206Z,16.40
2023-02-16T13:21:16.905Z,16.60
2023-02-16T13:23:56.087Z,16.90
2023-02-16T13:26:43.900Z,17.00
2023-02-16T13:29:52.668Z,16.70
2023-02-16T13:32:53.837Z,17.20
2023-02-16T13:35:58.603Z,17.90
2023-02-16T13:38:43.639Z,18.50
2023-02-16T13:41:10.595Z,18.50
2023-02-16T13:43:50.468Z,18.10
2023-02-16T13:46:33.017Z,17.60
2023-02-16T13:49:02.178Z,16.90
2023-02-16T13:51:41.724Z,16.50
2023-02-16T13:54:34.380Z,16.60
2023-02-16T13:57:05.808Z,16.70
2023-02-16T13:59:36.034Z,16.10
2023-02-16T14:02:04.060Z,15.90
2023-02-16T14:04:31.044Z,15.70
2023-02-16T14:07:05.030Z,15.40
2023-02-16T14:09:38.288Z,15.00
2023-02-16T14:12:19.972Z,14.80
2023-02-16T14:14:57.315Z,14.40
2023-02-16T14:17:34.210Z,14.10
2023-02-16T14:20:13.809Z,13.90
2023-02-16T14:22:43.563Z,13.80
2023-02-16T14:25:22.810Z,13.60
2023-02-16T14:28:05.628Z,13.70
2023-02-16T14:30:49.846Z,13.80
2023-02-16T14:33:22.477Z,13.70
2023-02-16T14:38:52.033Z,13.60
2023-02-16T14:41:35.515Z,13.60
2023-02-16T14:44:05.217Z,13.50
2023-02-16T14:46:59.512Z,13.50
2023-02-16T14:49:55.278Z,13.60
2023-02-16T14:52:49.793Z,13.60
2023-02-16T14:55:32.314Z,13.60
2023-02-16T14:58:05.148Z,13.40
2023-02-16T15:00:46.427Z,13.30
2023-02-16T15:03:25.254Z,13.30
2023-02-16T15:06:02.436Z,13.30
2023-02-16T15:08:36.884Z,13.20
2023-02-16T15:11:23.662Z,13.10
2023-02-16T15:13:51.823Z,13.00
2023-02-16T15:16:20.723Z,12.80
2023-02-16T15:18:52.038Z,12.70
2023-02-16T15:21:28.441Z,12.60
2023-02-16T15:23:58.155Z,12.50
2023-02-16T15:26:31.209Z,12.40
2023-02-16T15:29:01.123Z,12.40
2023-02-16T15:31:38.235Z,12.30
2023-02-16T15:34:10.777Z,12.20
2023-02-16T15:36:43.510Z,12.10
2023-02-16T15:39:16.070Z,12.10
2023-02-16T15:41:50.081Z,12.10
2023-02-16T15:44:34.251Z,12.10
2023-02-16T15:47:14.313Z,12.00
2023-02-16T15:49:41.597Z,12.00
2023-02-16T15:52:14.348Z,12.00
2023-02-16T15:54:42.031Z,11.90
2023-02-16T15:57:24.373Z,11.70
2023-02-16T15:59:58.674Z,11.60
2023-02-16T16:02:39.614Z,11.50
2023-02-16T16:05:19.589Z,11.30
2023-02-16T16:07:46.841Z,11.10
2023-02-16T16:10:26.393Z,11.10
2023-02-16T16:13:01.306Z,11.00
2023-02-16T16:15:31.076Z,10.80
2023-02-16T16:18:00.909Z,10.70
2023-02-16T16:20:35.986Z,10.50
2023-02-16T16:23:07.567Z,10.30
2023-02-16T16:25:34.423Z,10.20
2023-02-16T16:28:03.247Z,10.10
2023-02-16T16:30:32.834Z,10.00
2023-02-16T16:33:09.113Z,9.80
2023-02-16T16:35:39.677Z,9.50
2023-02-16T16:38:20.749Z,9.20
2023-02-16T16:40:53.029Z,9.00
2023-02-16T16:43:22.819Z,8.80
2023-02-16T16:45:56.444Z,8.70
2023-02-16T16:48:30.832Z,8.70
2023-02-16T16:51:31.429Z,8.70
2023-02-16T16:54:04.187Z,8.70
2023-02-16T16:56:36.297Z,8.70
2023-02-16T16:59:04.426Z,8.80
2023-02-16T17:01:32.509Z,8.90
2023-02-16T17:04:00.094Z,9.00
2023-02-16T17:06:27.574Z,9.00
2023-02-16T17:08:55.315Z,9.00
2023-02-16T17:11:26.461Z,9.00
2023-02-16T17:13:58.426Z,9.10
2023-02-16T17:16:31.750Z,9.10
2023-02-16T17:18:58.758Z,9.10
2023-02-16T17:21:25.787Z,9.00
2023-02-16T17:23:53.614Z,9.10
2023-02-16T17:26:22.457Z,9.10
2023-02-16T17:28:50.173Z,9.10
2023-02-16T17:31:17.361Z,9.10
2023-02-16T17:33:44.917Z,9.10
2023-02-16T17:36:15.495Z,9.00
2023-02-16T17:38:43.339Z,9.00
2023-02-16T17:41:26.137Z,9.00
2023-02-16T17:43:53.664Z,9.00
2023-02-16T17:46:22.544Z,9.00
2023-02-16T17:48:53.334Z,9.00
2023-02-16T17:51:22.282Z,9.00
2023-02-16T17:53:49.227Z,9.00
2023-02-16T17:56:20.185Z,9.00
2023-02-16T17:58:47.367Z,9.00
2023-02-16T18:01:16.708Z,9.00
2023-02-16T18:03:43.870Z,9.00
2023-02-16T18:06:19.843Z,9.00
2023-02-16T18:08:47.397Z,9.00
2023-02-16T18:11:14.453Z,9.00
2023-02-16T18:13:41.511Z,9.00
2023-02-16T18:16:13.547Z,9.00
2023-02-16T18:18:40.439Z,8.90
2023-02-16T18:21:07.653Z,9.00
2023-02-16T18:23:35.805Z,9.00
2023-02-16T18:26:03.220Z,8.90
2023-02-16T18:28:33.521Z,8.90
2023-02-16T18:31:01.596Z,8.80
2023-02-16T18:33:28.800Z,8.90
2023-02-16T18:36:00.094Z,8.80
2023-02-16T18:38:27.480Z,8.80
2023-02-16T18:40:55.569Z,8.80
2023-02-16T18:43:23.110Z,8.70
2023-02-16T18:45:50.559Z,8.80
2023-02-16T18:48:17.731Z,8.70
2023-02-16T18:50:44.882Z,8.70
2023-02-16T18:53:14.747Z,8.70
2023-02-16T18:55:41.802Z,8.70
2023-02-16T18:58:11.386Z,8.70
2023-02-16T19:00:38.464Z,8.70
2023-02-16T19:03:06.027Z,8.70
2023-02-16T19:05:33.730Z,8.70
2023-02-16T19:08:01.183Z,8.70
2023-02-16T19:10:28.392Z,8.70
2023-02-16T19:12:55.416Z,8.70
2023-02-16T19:15:22.812Z,8.70
2023-02-16T19:17:49.851Z,8.60
2023-02-16T19:20:18.671Z,8.60
2023-02-16T19:22:49.968Z,8.50
2023-02-16T19:25:17.211Z,8.50
2023-02-16T19:27:44.349Z,8.50
2023-02-16T19:30:12.873Z,8.50
2023-02-16T19:32:43.482Z,8.50
2023-02-16T19:35:11.336Z,8.50
2023-02-16T19:37:38.283Z,8.50
2023-02-16T19:40:11.083Z,8.50
2023-02-16T19:42:40.127Z,8.40
2023-02-16T19:45:07.692Z,8.40
2023-02-16T19:47:35.075Z,8.40
2023-02-16T19:50:02.596Z,8.50
2023-02-16T19:52:29.695Z,8.50
2023-02-16T19:54:56.818Z,8.50
2023-02-16T19:57:24.122Z,8.50
2023-02-16T19:59:51.398Z,8.50
2023-02-16T20:02:18.879Z,8.50
2023-02-16T20:04:46.063Z,8.50
2023-02-16T20:07:13.457Z,8.50
2023-02-16T20:09:40.399Z,8.50
2023-02-16T20:12:07.934Z,8.50
2023-02-16T20:14:35.018Z,8.50
2023-02-16T20:17:02.053Z,8.50
2023-02-16T20:19:29.218Z,8.50
2023-02-16T20:21:56.436Z,8.50
2023-02-16T20:24:23.456Z,8.50
2023-02-16T20:26:52.194Z,8.60
2023-02-16T20:29:20.814Z,8.60
2023-02-16T20:31:52.559Z,8.50
2023-02-16T20:34:20.152Z,8.50
2023-02-16T20:36:47.291Z,8.50
2023-02-16T20:39:15.115Z,8.50
2023-02-16T20:41:42.438Z,8.50
2023-02-16T20:44:10.938Z,8.50
2023-02-16T20:46:40.070Z,8.60
2023-02-16T20:49:09.049Z,8.60
2023-02-16T20:51:38.573Z,8.50
2023-02-16T20:54:06.191Z,8.50
2023-02-16T20:56:33.682Z,8.50
2023-02-16T20:59:01.609Z,8.60
2023-02-16T21:01:30.748Z,8.50
2023-02-16T21:03:59.754Z,8.40
2023-02-16T21:06:28.489Z,8.20
2023-02-16T21:08:56.222Z,8.10
2023-02-16T21:11:24.393Z,8.00
2023-02-16T21:13:51.802Z,7.90
2023-02-16T21:16:19.101Z,7.80
2023-02-16T21:18:46.510Z,7.80
2023-02-16T21:21:20.158Z,7.80
2023-02-16T21:23:51.516Z,7.70
2023-02-16T21:26:26.620Z,7.70
2023-02-16T21:28:59.520Z,7.70
2023-02-16T21:31:30.915Z,7.70
2023-02-16T21:34:02.377Z,7.60
2023-02-16T21:36:36.147Z,7.60
2023-02-16T21:39:08.736Z,7.70
2023-02-16T21:41:39.790Z,7.70
2023-02-16T21:44:17.515Z,7.70
2023-02-16T21:46:48.544Z,7.70
2023-02-16T21:49:21.288Z,7.80
2023-02-16T21:51:49.760Z,7.80
2023-02-16T21:54:40.068Z,7.80
2023-02-16T21:57:09.113Z,7.80
2023-02-16T21:59:40.652Z,7.80
2023-02-16T22:02:10.765Z,7.90
2023-02-16T22:04:38.833Z,7.90
2023-02-16T22:07:07.166Z,7.90
2023-02-16T22:09:36.309Z,7.90
2023-02-16T22:12:05.303Z,7.90
2023-02-16T22:14:35.287Z,7.90
2023-02-16T22:17:06.928Z,7.90
2023-02-16T22:19:35.406Z,8.00
2023-02-16T22:22:04.220Z,7.90
2023-02-16T22:24:35.690Z,7.90
2023-02-16T22:27:05.006Z,7.90
2023-02-16T22:29:34.370Z,7.90
2023-02-16T22:32:03.166Z,7.90
2023-02-16T22:34:31.937Z,7.90
2023-02-16T22:37:04.496Z,7.90
2023-02-16T22:39:32.930Z,7.80
2023-02-16T22:42:04.660Z,7.80
2023-02-16T22:44:32.268Z,7.80
2023-02-16T22:47:01.729Z,7.80
2023-02-16T22:49:33.471Z,7.70
2023-02-16T22:52:07.471Z,7.70
2023-02-16T22:54:37.581Z,7.70
2023-02-16T22:57:07.235Z,7.80
2023-02-16T22:59:38.705Z,7.80
2023-02-16T23:02:08.691Z,7.80
2023-02-16T23:04:38.457Z,7.80
2023-02-16T23:07:08.959Z,7.80
2023-02-16T23:09:39.334Z,7.70
2023-02-16T23:12:08.014Z,7.70
2023-02-16T23:14:41.285Z,7.70
2023-02-16T23:17:10.086Z,7.80
2023-02-16T23:19:38.163Z,7.70
2023-02-16T23:22:08.385Z,7.70
2023-02-16T23:24:39.577Z,7.70
2023-02-16T23:27:07.529Z,7.70
2023-02-16T23:29:34.855Z,7.80
2023-02-16T23:32:01.765Z,7.80
2023-02-16T23:34:28.825Z,7.80
2023-02-16T23:36:56.203Z,7.80
2023-02-16T23:39:23.466Z,7.80
2023-02-16T23:41:52.653Z,7.80
2023-02-16T23:44:21.296Z,7.80
2023-02-16T23:46:53.604Z,7.90
2023-02-16T23:49:23.801Z,7.90
2023-02-16T23:51:51.902Z,7.80
2023-02-16T23:54:19.662Z,7.80
2023-02-16T23:56:47.295Z,7.80
2023-02-16T23:59:16.018Z,7.90
